sensor_id;sensor_type;location;lat;lon;timestamp;P1;durP1;ratioP1;P2;durP2;ratioP2
68951;SDS011;56000;51.146;17.112;2023-07-20T00:00:11;5.80;;;3.60;;
68951;SDS011;56000;51.146;17.112;2023-07-20T00:03:15;7.50;;;3.30;;
68951;SDS011;56000;51.146;17.112;2023-07-20T00:05:49;7.40;;;3.60;;
68951;SDS011;56000;51.146;17.112;2023-07-20T00:08:22;9.40;;;3.30;;
68951;SDS011;56000;51.146;17.112;2023-07-20T00:10:55;5.80;;;3.10;;
68951;SDS011;56000;51.146;17.112;2023-07-20T00:13:29;8.90;;;3.50;;
68951;SDS011;56000;51.146;17.112;2023-07-20T00:16:02;7.70;;;3.00;;
68951;SDS011;56000;51.146;17.112;2023-07-20T00:18:36;5.30;;;2.90;;
68951;SDS011;56000;51.146;17.112;2023-07-20T00:21:09;5.40;;;3.00;;
68951;SDS011;56000;51.146;17.112;2023-07-20T00:23:42;7.20;;;3.30;;
68951;SDS011;56000;51.146;17.112;2023-07-20T00:26:15;6.10;;;3.20;;
68951;SDS011;56000;51.146;17.112;2023-07-20T00:28:50;7.40;;;3.50;;
68951;SDS011;56000;51.146;17.112;2023-07-20T00:31:23;6.10;;;3.60;;
68951;SDS011;56000;51.146;17.112;2023-07-20T00:33:59;5.20;;;3.20;;
68951;SDS011;56000;51.146;17.112;2023-07-20T00:36:32;6.20;;;3.00;;
68951;SDS011;56000;51.146;17.112;2023-07-20T00:39:05;7.20;;;3.70;;
68951;SDS011;56000;51.146;17.112;2023-07-20T00:41:38;19.50;;;3.70;;
68951;SDS011;56000;51.146;17.112;2023-07-20T00:44:11;10.20;;;3.70;;
68951;SDS011;56000;51.146;17.112;2023-07-20T00:46:45;5.10;;;3.40;;
68951;SDS011;56000;51.146;17.112;2023-07-20T00:49:19;7.90;;;3.60;;
68951;SDS011;56000;51.146;17.112;2023-07-20T00:51:52;8.90;;;3.70;;
68951;SDS011;56000;51.146;17.112;2023-07-20T00:54:25;6.10;;;3.60;;
68951;SDS011;56000;51.146;17.112;2023-07-20T00:56:59;5.30;;;3.10;;
68951;SDS011;56000;51.146;17.112;2023-07-20T00:59:34;8.30;;;3.80;;
68951;SDS011;56000;51.146;17.112;2023-07-20T01:02:08;10.10;;;4.20;;
68951;SDS011;56000;51.146;17.112;2023-07-20T01:04:42;7.50;;;4.30;;
68951;SDS011;56000;51.146;17.112;2023-07-20T01:07:27;9.50;;;4.30;;
68951;SDS011;56000;51.146;17.112;2023-07-20T01:10:10;11.50;;;4.30;;
68951;SDS011;56000;51.146;17.112;2023-07-20T01:12:52;12.50;;;4.60;;
68951;SDS011;56000;51.146;17.112;2023-07-20T01:15:26;5.10;;;3.40;;
68951;SDS011;56000;51.146;17.112;2023-07-20T01:17:59;7.60;;;4.00;;
68951;SDS011;56000;51.146;17.112;2023-07-20T01:20:34;6.20;;;3.80;;
68951;SDS011;56000;51.146;17.112;2023-07-20T01:23:31;6.50;;;3.30;;
68951;SDS011;56000;51.146;17.112;2023-07-20T01:29:46;4.70;;;3.20;;
68951;SDS011;56000;51.146;17.112;2023-07-20T01:32:33;5.20;;;2.80;;
68951;SDS011;56000;51.146;17.112;2023-07-20T01:35:08;17.30;;;2.90;;
68951;SDS011;56000;51.146;17.112;2023-07-20T01:37:46;8.80;;;2.90;;
68951;SDS011;56000;51.146;17.112;2023-07-20T01:40:21;4.80;;;3.10;;
68951;SDS011;56000;51.146;17.112;2023-07-20T01:42:57;7.70;;;2.80;;
68951;SDS011;56000;51.146;17.112;2023-07-20T01:45:31;6.50;;;2.80;;
68951;SDS011;56000;51.146;17.112;2023-07-20T01:48:05;7.90;;;2.80;;
68951;SDS011;56000;51.146;17.112;2023-07-20T01:50:38;5.60;;;3.10;;
68951;SDS011;56000;51.146;17.112;2023-07-20T01:53:11;7.30;;;3.50;;
68951;SDS011;56000;51.146;17.112;2023-07-20T01:55:44;9.70;;;3.20;;
68951;SDS011;56000;51.146;17.112;2023-07-20T01:58:17;6.10;;;2.90;;
68951;SDS011;56000;51.146;17.112;2023-07-20T02:00:51;5.30;;;3.50;;
68951;SDS011;56000;51.146;17.112;2023-07-20T02:03:24;9.00;;;3.60;;
68951;SDS011;56000;51.146;17.112;2023-07-20T02:05:57;6.80;;;3.40;;
68951;SDS011;56000;51.146;17.112;2023-07-20T02:08:30;5.60;;;3.30;;
68951;SDS011;56000;51.146;17.112;2023-07-20T02:11:04;4.80;;;3.20;;
68951;SDS011;56000;51.146;17.112;2023-07-20T02:13:37;7.50;;;3.70;;
68951;SDS011;56000;51.146;17.112;2023-07-20T02:16:10;7.90;;;4.30;;
68951;SDS011;56000;51.146;17.112;2023-07-20T02:18:44;5.80;;;3.30;;
68951;SDS011;56000;51.146;17.112;2023-07-20T02:21:17;6.70;;;3.80;;
68951;SDS011;56000;51.146;17.112;2023-07-20T02:23:50;11.10;;;5.00;;
68951;SDS011;56000;51.146;17.112;2023-07-20T02:26:23;9.40;;;4.50;;
68951;SDS011;56000;51.146;17.112;2023-07-20T02:28:57;8.10;;;3.90;;
68951;SDS011;56000;51.146;17.112;2023-07-20T02:31:30;5.60;;;4.10;;
68951;SDS011;56000;51.146;17.112;2023-07-20T02:34:03;6.70;;;4.10;;
68951;SDS011;56000;51.146;17.112;2023-07-20T02:36:37;8.20;;;4.10;;
68951;SDS011;56000;51.146;17.112;2023-07-20T02:39:12;5.90;;;4.40;;
68951;SDS011;56000;51.146;17.112;2023-07-20T02:41:45;7.20;;;4.30;;
68951;SDS011;56000;51.146;17.112;2023-07-20T02:44:19;5.50;;;3.70;;
68951;SDS011;56000;51.146;17.112;2023-07-20T02:46:52;8.90;;;3.70;;
68951;SDS011;56000;51.146;17.112;2023-07-20T02:49:25;3.80;;;2.90;;
68951;SDS011;56000;51.146;17.112;2023-07-20T02:51:58;5.30;;;3.10;;
68951;SDS011;56000;51.146;17.112;2023-07-20T02:54:32;4.20;;;2.90;;
68951;SDS011;56000;51.146;17.112;2023-07-20T02:57:06;6.50;;;4.50;;
68951;SDS011;56000;51.146;17.112;2023-07-20T02:59:39;8.10;;;4.00;;
68951;SDS011;56000;51.146;17.112;2023-07-20T03:02:12;5.50;;;2.70;;
68951;SDS011;56000;51.146;17.112;2023-07-20T03:04:46;6.60;;;3.30;;
68951;SDS011;56000;51.146;17.112;2023-07-20T03:07:19;3.70;;;2.50;;
68951;SDS011;56000;51.146;17.112;2023-07-20T03:09:52;6.80;;;3.40;;
68951;SDS011;56000;51.146;17.112;2023-07-20T03:12:26;8.20;;;3.90;;
68951;SDS011;56000;51.146;17.112;2023-07-20T03:14:59;6.40;;;3.60;;
68951;SDS011;56000;51.146;17.112;2023-07-20T03:17:35;7.90;;;3.30;;
68951;SDS011;56000;51.146;17.112;2023-07-20T03:20:10;6.90;;;3.90;;
68951;SDS011;56000;51.146;17.112;2023-07-20T03:22:44;8.10;;;3.90;;
68951;SDS011;56000;51.146;17.112;2023-07-20T03:25:17;8.50;;;3.80;;
68951;SDS011;56000;51.146;17.112;2023-07-20T03:27:51;14.80;;;4.30;;
68951;SDS011;56000;51.146;17.112;2023-07-20T03:30:24;8.40;;;4.20;;
68951;SDS011;56000;51.146;17.112;2023-07-20T03:32:58;8.70;;;4.00;;
68951;SDS011;56000;51.146;17.112;2023-07-20T03:35:33;8.90;;;4.40;;
68951;SDS011;56000;51.146;17.112;2023-07-20T03:38:06;9.60;;;4.60;;
68951;SDS011;56000;51.146;17.112;2023-07-20T03:40:40;8.70;;;5.10;;
68951;SDS011;56000;51.146;17.112;2023-07-20T03:43:23;11.20;;;4.90;;
68951;SDS011;56000;51.146;17.112;2023-07-20T03:45:57;8.80;;;4.60;;
68951;SDS011;56000;51.146;17.112;2023-07-20T03:48:30;9.20;;;4.60;;
68951;SDS011;56000;51.146;17.112;2023-07-20T03:51:03;10.40;;;4.80;;
68951;SDS011;56000;51.146;17.112;2023-07-20T03:53:37;8.60;;;5.10;;
68951;SDS011;56000;51.146;17.112;2023-07-20T03:56:10;7.70;;;4.70;;
68951;SDS011;56000;51.146;17.112;2023-07-20T03:58:43;10.50;;;4.60;;
68951;SDS011;56000;51.146;17.112;2023-07-20T04:01:17;7.90;;;4.60;;
68951;SDS011;56000;51.146;17.112;2023-07-20T04:03:50;6.70;;;4.50;;
68951;SDS011;56000;51.146;17.112;2023-07-20T04:06:23;12.10;;;5.10;;
68951;SDS011;56000;51.146;17.112;2023-07-20T04:08:57;10.50;;;5.20;;
68951;SDS011;56000;51.146;17.112;2023-07-20T04:11:30;11.60;;;5.20;;
68951;SDS011;56000;51.146;17.112;2023-07-20T04:14:03;11.60;;;5.30;;
68951;SDS011;56000;51.146;17.112;2023-07-20T04:16:36;7.30;;;4.60;;
68951;SDS011;56000;51.146;17.112;2023-07-20T04:19:10;6.90;;;4.50;;
68951;SDS011;56000;51.146;17.112;2023-07-20T04:21:43;9.30;;;4.80;;
68951;SDS011;56000;51.146;17.112;2023-07-20T04:24:17;7.00;;;4.10;;
68951;SDS011;56000;51.146;17.112;2023-07-20T04:26:50;6.50;;;4.10;;
68951;SDS011;56000;51.146;17.112;2023-07-20T04:29:24;10.60;;;4.10;;
68951;SDS011;56000;51.146;17.112;2023-07-20T04:31:57;8.40;;;4.20;;
68951;SDS011;56000;51.146;17.112;2023-07-20T04:34:31;10.70;;;4.90;;
68951;SDS011;56000;51.146;17.112;2023-07-20T04:37:07;10.70;;;5.30;;
68951;SDS011;56000;51.146;17.112;2023-07-20T04:39:41;11.40;;;4.40;;
68951;SDS011;56000;51.146;17.112;2023-07-20T04:42:14;9.20;;;4.70;;
68951;SDS011;56000;51.146;17.112;2023-07-20T04:44:47;7.20;;;4.50;;
68951;SDS011;56000;51.146;17.112;2023-07-20T04:47:21;9.20;;;4.50;;
68951;SDS011;56000;51.146;17.112;2023-07-20T04:49:55;9.00;;;4.40;;
68951;SDS011;56000;51.146;17.112;2023-07-20T04:52:28;10.40;;;4.50;;
68951;SDS011;56000;51.146;17.112;2023-07-20T04:55:16;8.80;;;4.70;;
68951;SDS011;56000;51.146;17.112;2023-07-20T04:57:49;7.60;;;4.70;;
68951;SDS011;56000;51.146;17.112;2023-07-20T05:00:24;8.40;;;4.70;;
68951;SDS011;56000;51.146;17.112;2023-07-20T05:02:57;8.60;;;4.40;;
68951;SDS011;56000;51.146;17.112;2023-07-20T05:05:31;8.80;;;4.70;;
68951;SDS011;56000;51.146;17.112;2023-07-20T05:08:05;7.10;;;4.30;;
68951;SDS011;56000;51.146;17.112;2023-07-20T05:10:38;9.60;;;5.10;;
68951;SDS011;56000;51.146;17.112;2023-07-20T05:13:11;9.10;;;4.80;;
68951;SDS011;56000;51.146;17.112;2023-07-20T05:15:45;9.80;;;4.50;;
68951;SDS011;56000;51.146;17.112;2023-07-20T05:18:19;6.80;;;4.30;;
68951;SDS011;56000;51.146;17.112;2023-07-20T05:20:54;7.10;;;4.70;;
68951;SDS011;56000;51.146;17.112;2023-07-20T05:23:28;5.50;;;4.00;;
68951;SDS011;56000;51.146;17.112;2023-07-20T05:26:01;7.30;;;4.60;;
68951;SDS011;56000;51.146;17.112;2023-07-20T05:28:34;8.00;;;4.30;;
68951;SDS011;56000;51.146;17.112;2023-07-20T05:31:07;8.00;;;4.40;;
68951;SDS011;56000;51.146;17.112;2023-07-20T05:33:40;6.50;;;3.80;;
68951;SDS011;56000;51.146;17.112;2023-07-20T05:36:13;7.90;;;4.00;;
68951;SDS011;56000;51.146;17.112;2023-07-20T05:38:47;9.30;;;4.40;;
68951;SDS011;56000;51.146;17.112;2023-07-20T05:41:20;13.60;;;4.40;;
68951;SDS011;56000;51.146;17.112;2023-07-20T05:43:53;7.80;;;4.40;;
68951;SDS011;56000;51.146;17.112;2023-07-20T05:46:26;11.70;;;5.00;;
68951;SDS011;56000;51.146;17.112;2023-07-20T05:49:15;8.20;;;4.20;;
68951;SDS011;56000;51.146;17.112;2023-07-20T05:51:48;8.50;;;4.80;;
68951;SDS011;56000;51.146;17.112;2023-07-20T05:54:23;9.30;;;5.20;;
68951;SDS011;56000;51.146;17.112;2023-07-20T05:56:56;9.90;;;4.60;;
68951;SDS011;56000;51.146;17.112;2023-07-20T05:59:30;14.40;;;5.20;;
68951;SDS011;56000;51.146;17.112;2023-07-20T06:02:03;14.40;;;4.70;;
68951;SDS011;56000;51.146;17.112;2023-07-20T06:04:38;9.30;;;4.80;;
68951;SDS011;56000;51.146;17.112;2023-07-20T06:07:11;10.40;;;4.60;;
68951;SDS011;56000;51.146;17.112;2023-07-20T06:09:45;11.90;;;5.50;;
68951;SDS011;56000;51.146;17.112;2023-07-20T06:12:18;9.30;;;4.50;;
68951;SDS011;56000;51.146;17.112;2023-07-20T06:14:51;10.40;;;5.20;;
68951;SDS011;56000;51.146;17.112;2023-07-20T06:17:25;11.20;;;4.70;;
68951;SDS011;56000;51.146;17.112;2023-07-20T06:19:58;13.30;;;5.20;;
68951;SDS011;56000;51.146;17.112;2023-07-20T06:22:32;11.00;;;5.30;;
68951;SDS011;56000;51.146;17.112;2023-07-20T06:25:06;10.50;;;5.00;;
68951;SDS011;56000;51.146;17.112;2023-07-20T06:27:41;7.80;;;4.70;;
68951;SDS011;56000;51.146;17.112;2023-07-20T06:30:14;15.30;;;4.20;;
68951;SDS011;56000;51.146;17.112;2023-07-20T06:32:48;11.40;;;3.90;;
68951;SDS011;56000;51.146;17.112;2023-07-20T06:35:23;9.60;;;4.60;;
68951;SDS011;56000;51.146;17.112;2023-07-20T06:37:57;10.10;;;4.70;;
68951;SDS011;56000;51.146;17.112;2023-07-20T06:40:50;9.70;;;4.70;;
68951;SDS011;56000;51.146;17.112;2023-07-20T06:43:24;10.10;;;4.40;;
68951;SDS011;56000;51.146;17.112;2023-07-20T06:46:00;8.10;;;4.30;;
68951;SDS011;56000;51.146;17.112;2023-07-20T06:48:33;9.10;;;4.60;;
68951;SDS011;56000;51.146;17.112;2023-07-20T06:51:26;6.20;;;4.00;;
68951;SDS011;56000;51.146;17.112;2023-07-20T06:53:59;6.60;;;4.40;;
68951;SDS011;56000;51.146;17.112;2023-07-20T06:56:34;7.80;;;3.90;;
68951;SDS011;56000;51.146;17.112;2023-07-20T07:01:46;6.60;;;4.50;;
68951;SDS011;56000;51.146;17.112;2023-07-20T07:04:19;5.70;;;3.80;;
68951;SDS011;56000;51.146;17.112;2023-07-20T07:06:53;5.20;;;3.90;;
68951;SDS011;56000;51.146;17.112;2023-07-20T07:09:26;6.80;;;3.90;;
68951;SDS011;56000;51.146;17.112;2023-07-20T07:12:00;6.70;;;4.00;;
68951;SDS011;56000;51.146;17.112;2023-07-20T07:14:33;7.00;;;3.80;;
68951;SDS011;56000;51.146;17.112;2023-07-20T07:17:06;7.90;;;4.00;;
68951;SDS011;56000;51.146;17.112;2023-07-20T07:19:40;7.60;;;4.10;;
68951;SDS011;56000;51.146;17.112;2023-07-20T07:22:18;6.80;;;3.30;;
68951;SDS011;56000;51.146;17.112;2023-07-20T07:24:51;6.10;;;3.90;;
68951;SDS011;56000;51.146;17.112;2023-07-20T07:27:25;11.20;;;4.10;;
68951;SDS011;56000;51.146;17.112;2023-07-20T07:29:58;6.10;;;4.10;;
68951;SDS011;56000;51.146;17.112;2023-07-20T07:32:31;5.50;;;3.70;;
68951;SDS011;56000;51.146;17.112;2023-07-20T07:35:06;8.00;;;3.70;;
68951;SDS011;56000;51.146;17.112;2023-07-20T07:37:39;5.20;;;3.70;;
68951;SDS011;56000;51.146;17.112;2023-07-20T07:40:32;7.30;;;3.40;;
68951;SDS011;56000;51.146;17.112;2023-07-20T07:43:06;5.80;;;3.60;;
68951;SDS011;56000;51.146;17.112;2023-07-20T07:45:39;6.50;;;3.20;;
68951;SDS011;56000;51.146;17.112;2023-07-20T07:48:12;6.60;;;3.70;;
68951;SDS011;56000;51.146;17.112;2023-07-20T07:50:46;7.10;;;3.50;;
68951;SDS011;56000;51.146;17.112;2023-07-20T07:53:20;6.50;;;3.40;;
68951;SDS011;56000;51.146;17.112;2023-07-20T07:55:55;10.20;;;4.00;;
68951;SDS011;56000;51.146;17.112;2023-07-20T07:58:29;4.10;;;2.90;;
68951;SDS011;56000;51.146;17.112;2023-07-20T08:01:06;4.30;;;2.90;;
68951;SDS011;56000;51.146;17.112;2023-07-20T08:03:39;4.90;;;3.00;;
68951;SDS011;56000;51.146;17.112;2023-07-20T08:06:12;6.50;;;3.30;;
68951;SDS011;56000;51.146;17.112;2023-07-20T08:08:46;5.40;;;2.80;;
68951;SDS011;56000;51.146;17.112;2023-07-20T08:11:19;7.30;;;3.60;;
68951;SDS011;56000;51.146;17.112;2023-07-20T08:13:52;5.90;;;3.20;;
68951;SDS011;56000;51.146;17.112;2023-07-20T08:16:26;6.80;;;3.00;;
68951;SDS011;56000;51.146;17.112;2023-07-20T08:19:00;6.40;;;2.80;;
68951;SDS011;56000;51.146;17.112;2023-07-20T08:21:34;6.40;;;3.00;;
68951;SDS011;56000;51.146;17.112;2023-07-20T08:24:08;7.40;;;2.90;;
68951;SDS011;56000;51.146;17.112;2023-07-20T08:26:41;7.50;;;3.00;;
68951;SDS011;56000;51.146;17.112;2023-07-20T08:29:14;7.10;;;3.20;;
68951;SDS011;56000;51.146;17.112;2023-07-20T08:31:48;5.70;;;3.10;;
68951;SDS011;56000;51.146;17.112;2023-07-20T08:34:21;5.10;;;2.70;;
68951;SDS011;56000;51.146;17.112;2023-07-20T08:37:01;4.30;;;2.50;;
68951;SDS011;56000;51.146;17.112;2023-07-20T08:39:34;3.70;;;2.60;;
68951;SDS011;56000;51.146;17.112;2023-07-20T08:42:08;4.00;;;2.10;;
68951;SDS011;56000;51.146;17.112;2023-07-20T08:44:43;6.40;;;2.20;;
68951;SDS011;56000;51.146;17.112;2023-07-20T08:47:19;3.60;;;1.90;;
68951;SDS011;56000;51.146;17.112;2023-07-20T08:49:53;3.10;;;2.20;;
68951;SDS011;56000;51.146;17.112;2023-07-20T08:52:27;3.20;;;2.00;;
68951;SDS011;56000;51.146;17.112;2023-07-20T08:55:01;7.90;;;2.20;;
68951;SDS011;56000;51.146;17.112;2023-07-20T08:57:35;7.00;;;2.10;;
68951;SDS011;56000;51.146;17.112;2023-07-20T09:00:12;4.70;;;2.00;;
68951;SDS011;56000;51.146;17.112;2023-07-20T09:02:50;5.70;;;1.90;;
68951;SDS011;56000;51.146;17.112;2023-07-20T09:05:25;1.90;;;1.60;;
68951;SDS011;56000;51.146;17.112;2023-07-20T09:07:58;4.00;;;1.80;;
68951;SDS011;56000;51.146;17.112;2023-07-20T09:10:33;4.90;;;2.00;;
68951;SDS011;56000;51.146;17.112;2023-07-20T09:13:06;2.60;;;1.70;;
68951;SDS011;56000;51.146;17.112;2023-07-20T09:15:41;2.60;;;2.00;;
68951;SDS011;56000;51.146;17.112;2023-07-20T09:18:26;5.70;;;1.60;;
68951;SDS011;56000;51.146;17.112;2023-07-20T09:21:02;1.90;;;1.70;;
68951;SDS011;56000;51.146;17.112;2023-07-20T09:23:38;2.50;;;1.50;;
68951;SDS011;56000;51.146;17.112;2023-07-20T09:26:13;4.50;;;2.10;;
68951;SDS011;56000;51.146;17.112;2023-07-20T09:28:54;3.90;;;2.40;;
68951;SDS011;56000;51.146;17.112;2023-07-20T09:31:28;2.00;;;1.80;;
68951;SDS011;56000;51.146;17.112;2023-07-20T09:34:09;1.80;;;1.70;;
68951;SDS011;56000;51.146;17.112;2023-07-20T09:37:03;1.80;;;1.60;;
68951;SDS011;56000;51.146;17.112;2023-07-20T09:39:44;3.60;;;2.60;;
68951;SDS011;56000;51.146;17.112;2023-07-20T09:42:22;2.70;;;1.90;;
68951;SDS011;56000;51.146;17.112;2023-07-20T09:44:59;4.60;;;1.90;;
68951;SDS011;56000;51.146;17.112;2023-07-20T09:47:33;1.70;;;1.50;;
68951;SDS011;56000;51.146;17.112;2023-07-20T09:50:09;3.20;;;1.60;;
68951;SDS011;56000;51.146;17.112;2023-07-20T09:52:45;2.50;;;1.60;;
68951;SDS011;56000;51.146;17.112;2023-07-20T09:55:23;1.60;;;1.40;;
68951;SDS011;56000;51.146;17.112;2023-07-20T09:57:57;2.80;;;1.30;;
68951;SDS011;56000;51.146;17.112;2023-07-20T10:00:31;1.60;;;1.20;;
68951;SDS011;56000;51.146;17.112;2023-07-20T10:03:08;1.30;;;1.20;;
68951;SDS011;56000;51.146;17.112;2023-07-20T10:05:48;1.30;;;1.20;;
68951;SDS011;56000;51.146;17.112;2023-07-20T10:08:27;1.40;;;1.30;;
68951;SDS011;56000;51.146;17.112;2023-07-20T10:11:04;2.00;;;1.60;;
68951;SDS011;56000;51.146;17.112;2023-07-20T10:13:39;1.80;;;1.30;;
68951;SDS011;56000;51.146;17.112;2023-07-20T10:16:19;1.70;;;1.40;;
68951;SDS011;56000;51.146;17.112;2023-07-20T10:19:02;3.90;;;1.50;;
68951;SDS011;56000;51.146;17.112;2023-07-20T10:21:42;2.00;;;1.60;;
68951;SDS011;56000;51.146;17.112;2023-07-20T10:24:28;1.30;;;1.30;;
68951;SDS011;56000;51.146;17.112;2023-07-20T10:27:02;3.10;;;1.30;;
68951;SDS011;56000;51.146;17.112;2023-07-20T10:29:36;1.90;;;1.40;;
68951;SDS011;56000;51.146;17.112;2023-07-20T10:32:11;3.00;;;1.30;;
68951;SDS011;56000;51.146;17.112;2023-07-20T10:34:49;2.50;;;1.20;;
68951;SDS011;56000;51.146;17.112;2023-07-20T10:37:50;1.50;;;1.30;;
68951;SDS011;56000;51.146;17.112;2023-07-20T10:40:32;1.40;;;1.30;;
68951;SDS011;56000;51.146;17.112;2023-07-20T10:43:09;3.30;;;1.20;;
68951;SDS011;56000;51.146;17.112;2023-07-20T10:45:47;3.50;;;1.30;;
68951;SDS011;56000;51.146;17.112;2023-07-20T10:48:22;1.60;;;1.30;;
68951;SDS011;56000;51.146;17.112;2023-07-20T10:51:19;1.30;;;1.20;;
68951;SDS011;56000;51.146;17.112;2023-07-20T10:53:53;1.60;;;1.30;;
68951;SDS011;56000;51.146;17.112;2023-07-20T10:56:29;2.30;;;1.40;;
68951;SDS011;56000;51.146;17.112;2023-07-20T10:59:04;2.30;;;1.30;;
68951;SDS011;56000;51.146;17.112;2023-07-20T11:01:52;1.50;;;1.30;;
68951;SDS011;56000;51.146;17.112;2023-07-20T11:04:40;1.30;;;1.20;;
68951;SDS011;56000;51.146;17.112;2023-07-20T11:07:35;2.10;;;1.50;;
68951;SDS011;56000;51.146;17.112;2023-07-20T11:10:17;1.50;;;1.30;;
68951;SDS011;56000;51.146;17.112;2023-07-20T11:13:20;1.20;;;1.10;;
68951;SDS011;56000;51.146;17.112;2023-07-20T11:16:05;1.30;;;1.20;;
68951;SDS011;56000;51.146;17.112;2023-07-20T11:18:38;1.90;;;1.10;;
68951;SDS011;56000;51.146;17.112;2023-07-20T11:21:14;2.60;;;1.40;;
68951;SDS011;56000;51.146;17.112;2023-07-20T11:23:48;1.40;;;1.10;;
68951;SDS011;56000;51.146;17.112;2023-07-20T11:26:21;1.70;;;1.10;;
68951;SDS011;56000;51.146;17.112;2023-07-20T11:28:55;3.60;;;1.10;;
68951;SDS011;56000;51.146;17.112;2023-07-20T11:31:29;2.80;;;1.40;;
68951;SDS011;56000;51.146;17.112;2023-07-20T11:34:06;2.90;;;1.20;;
68951;SDS011;56000;51.146;17.112;2023-07-20T11:36:45;3.20;;;1.20;;
68951;SDS011;56000;51.146;17.112;2023-07-20T11:39:23;2.80;;;1.10;;
68951;SDS011;56000;51.146;17.112;2023-07-20T11:41:57;2.90;;;1.30;;
68951;SDS011;56000;51.146;17.112;2023-07-20T11:44:30;2.40;;;1.60;;
68951;SDS011;56000;51.146;17.112;2023-07-20T11:47:05;6.20;;;1.30;;
68951;SDS011;56000;51.146;17.112;2023-07-20T11:49:40;1.60;;;1.50;;
68951;SDS011;56000;51.146;17.112;2023-07-20T11:52:17;4.00;;;1.70;;
68951;SDS011;56000;51.146;17.112;2023-07-20T11:54:50;4.60;;;2.20;;
68951;SDS011;56000;51.146;17.112;2023-07-20T11:57:24;4.60;;;2.00;;
68951;SDS011;56000;51.146;17.112;2023-07-20T11:59:57;4.70;;;1.90;;
68951;SDS011;56000;51.146;17.112;2023-07-20T12:02:35;4.00;;;2.10;;
68951;SDS011;56000;51.146;17.112;2023-07-20T12:05:09;4.00;;;2.20;;
68951;SDS011;56000;51.146;17.112;2023-07-20T12:07:44;2.50;;;2.00;;
68951;SDS011;56000;51.146;17.112;2023-07-20T12:10:25;3.50;;;2.20;;
68951;SDS011;56000;51.146;17.112;2023-07-20T12:13:03;3.40;;;2.20;;
68951;SDS011;56000;51.146;17.112;2023-07-20T12:15:37;2.60;;;2.00;;
68951;SDS011;56000;51.146;17.112;2023-07-20T12:18:11;5.60;;;2.20;;
68951;SDS011;56000;51.146;17.112;2023-07-20T12:20:44;3.10;;;1.90;;
68951;SDS011;56000;51.146;17.112;2023-07-20T12:23:17;3.10;;;2.20;;
68951;SDS011;56000;51.146;17.112;2023-07-20T12:25:51;4.10;;;2.00;;
68951;SDS011;56000;51.146;17.112;2023-07-20T12:28:25;3.70;;;1.90;;
68951;SDS011;56000;51.146;17.112;2023-07-20T12:30:58;1.90;;;1.70;;
68951;SDS011;56000;51.146;17.112;2023-07-20T12:33:31;4.50;;;2.00;;
68951;SDS011;56000;51.146;17.112;2023-07-20T12:36:05;2.80;;;2.00;;
68951;SDS011;56000;51.146;17.112;2023-07-20T12:38:40;5.10;;;1.50;;
68951;SDS011;56000;51.146;17.112;2023-07-20T12:41:14;4.70;;;1.70;;
68951;SDS011;56000;51.146;17.112;2023-07-20T12:43:47;1.90;;;1.60;;
68951;SDS011;56000;51.146;17.112;2023-07-20T12:46:21;1.50;;;1.30;;
68951;SDS011;56000;51.146;17.112;2023-07-20T12:48:55;2.10;;;1.30;;
68951;SDS011;56000;51.146;17.112;2023-07-20T12:51:28;2.80;;;1.60;;
68951;SDS011;56000;51.146;17.112;2023-07-20T12:54:02;1.80;;;1.30;;
68951;SDS011;56000;51.146;17.112;2023-07-20T12:56:35;1.70;;;1.60;;
68951;SDS011;56000;51.146;17.112;2023-07-20T12:59:11;3.40;;;1.40;;
68951;SDS011;56000;51.146;17.112;2023-07-20T13:01:44;4.50;;;1.60;;
68951;SDS011;56000;51.146;17.112;2023-07-20T13:04:18;2.90;;;1.70;;
68951;SDS011;56000;51.146;17.112;2023-07-20T13:06:51;1.60;;;1.50;;
68951;SDS011;56000;51.146;17.112;2023-07-20T13:09:24;2.20;;;1.20;;
68951;SDS011;56000;51.146;17.112;2023-07-20T13:11:58;1.80;;;1.20;;
68951;SDS011;56000;51.146;17.112;2023-07-20T13:14:31;1.30;;;1.20;;
68951;SDS011;56000;51.146;17.112;2023-07-20T13:17:05;2.90;;;1.20;;
68951;SDS011;56000;51.146;17.112;2023-07-20T13:19:40;1.20;;;1.10;;
68951;SDS011;56000;51.146;17.112;2023-07-20T13:22:13;1.80;;;1.40;;
68951;SDS011;56000;51.146;17.112;2023-07-20T13:24:47;2.00;;;1.20;;
68951;SDS011;56000;51.146;17.112;2023-07-20T13:27:20;1.60;;;1.30;;
68951;SDS011;56000;51.146;17.112;2023-07-20T13:29:55;2.10;;;1.30;;
68951;SDS011;56000;51.146;17.112;2023-07-20T13:32:30;2.60;;;1.40;;
68951;SDS011;56000;51.146;17.112;2023-07-20T13:35:04;1.40;;;1.30;;
68951;SDS011;56000;51.146;17.112;2023-07-20T13:37:38;2.80;;;1.40;;
68951;SDS011;56000;51.146;17.112;2023-07-20T13:40:12;1.30;;;1.20;;
68951;SDS011;56000;51.146;17.112;2023-07-20T13:42:48;2.20;;;1.30;;
68951;SDS011;56000;51.146;17.112;2023-07-20T13:45:23;1.50;;;1.40;;
68951;SDS011;56000;51.146;17.112;2023-07-20T13:47:56;1.90;;;1.40;;
68951;SDS011;56000;51.146;17.112;2023-07-20T13:50:35;2.20;;;1.50;;
68951;SDS011;56000;51.146;17.112;2023-07-20T13:53:28;1.70;;;1.40;;
68951;SDS011;56000;51.146;17.112;2023-07-20T13:56:04;1.20;;;1.10;;
68951;SDS011;56000;51.146;17.112;2023-07-20T13:58:40;1.80;;;1.50;;
68951;SDS011;56000;51.146;17.112;2023-07-20T14:01:13;1.50;;;1.20;;
68951;SDS011;56000;51.146;17.112;2023-07-20T14:03:50;4.40;;;1.30;;
68951;SDS011;56000;51.146;17.112;2023-07-20T14:06:24;1.00;;;1.00;;
68951;SDS011;56000;51.146;17.112;2023-07-20T14:09:00;3.40;;;1.20;;
68951;SDS011;56000;51.146;17.112;2023-07-20T14:11:34;1.80;;;1.20;;
68951;SDS011;56000;51.146;17.112;2023-07-20T14:14:10;1.40;;;1.10;;
68951;SDS011;56000;51.146;17.112;2023-07-20T14:16:43;1.40;;;1.30;;
68951;SDS011;56000;51.146;17.112;2023-07-20T14:19:17;1.10;;;0.90;;
68951;SDS011;56000;51.146;17.112;2023-07-20T14:21:50;2.60;;;1.20;;
68951;SDS011;56000;51.146;17.112;2023-07-20T14:24:23;1.40;;;1.00;;
68951;SDS011;56000;51.146;17.112;2023-07-20T14:26:56;1.50;;;1.20;;
68951;SDS011;56000;51.146;17.112;2023-07-20T14:29:31;2.20;;;1.50;;
68951;SDS011;56000;51.146;17.112;2023-07-20T14:32:07;1.70;;;1.20;;
68951;SDS011;56000;51.146;17.112;2023-07-20T14:34:41;2.90;;;1.10;;
68951;SDS011;56000;51.146;17.112;2023-07-20T14:37:16;3.30;;;1.30;;
68951;SDS011;56000;51.146;17.112;2023-07-20T14:39:51;1.30;;;1.20;;
68951;SDS011;56000;51.146;17.112;2023-07-20T14:42:24;2.60;;;1.20;;
68951;SDS011;56000;51.146;17.112;2023-07-20T14:44:57;1.30;;;1.20;;
68951;SDS011;56000;51.146;17.112;2023-07-20T14:47:30;1.70;;;1.10;;
68951;SDS011;56000;51.146;17.112;2023-07-20T14:50:07;1.50;;;1.40;;
68951;SDS011;56000;51.146;17.112;2023-07-20T14:52:41;1.30;;;0.90;;
68951;SDS011;56000;51.146;17.112;2023-07-20T14:55:18;2.40;;;1.20;;
68951;SDS011;56000;51.146;17.112;2023-07-20T14:57:51;1.40;;;1.30;;
68951;SDS011;56000;51.146;17.112;2023-07-20T15:00:25;3.10;;;1.30;;
68951;SDS011;56000;51.146;17.112;2023-07-20T15:03:00;2.20;;;1.10;;
68951;SDS011;56000;51.146;17.112;2023-07-20T15:05:33;5.30;;;1.40;;
68951;SDS011;56000;51.146;17.112;2023-07-20T15:08:08;2.10;;;1.40;;
68951;SDS011;56000;51.146;17.112;2023-07-20T15:10:41;2.80;;;1.40;;
68951;SDS011;56000;51.146;17.112;2023-07-20T15:13:16;3.90;;;1.30;;
68951;SDS011;56000;51.146;17.112;2023-07-20T15:15:50;2.90;;;1.40;;
68951;SDS011;56000;51.146;17.112;2023-07-20T15:18:23;1.90;;;1.20;;
68951;SDS011;56000;51.146;17.112;2023-07-20T15:21:14;1.40;;;1.30;;
68951;SDS011;56000;51.146;17.112;2023-07-20T15:23:47;2.20;;;1.50;;
68951;SDS011;56000;51.146;17.112;2023-07-20T15:26:20;1.50;;;1.30;;